sensor_id;sensor_type;location;lat;lon;timestamp;P1;durP1;ratioP1;P2;durP2;ratioP2
21091;SDS011;10704;42.678;23.288;2023-10-31T00:00:09;12.25;;;5.28;;
21091;SDS011;10704;42.678;23.288;2023-10-31T00:02:36;13.20;;;5.55;;
21091;SDS011;10704;42.678;23.288;2023-10-31T00:08:49;12.00;;;5.70;;
21091;SDS011;10704;42.678;23.288;2023-10-31T00:11:15;10.48;;;4.47;;
21091;SDS011;10704;42.678;23.288;2023-10-31T00:13:41;12.43;;;4.40;;
21091;SDS011;10704;42.678;23.288;2023-10-31T00:16:07;10.02;;;4.43;;
21091;SDS011;10704;42.678;23.288;2023-10-31T00:24:45;9.35;;;4.40;;
21091;SDS011;10704;42.678;23.288;2023-10-31T00:27:11;8.70;;;4.20;;
21091;SDS011;10704;42.678;23.288;2023-10-31T00:29:38;8.20;;;4.32;;
21091;SDS011;10704;42.678;23.288;2023-10-31T00:32:04;14.40;;;4.82;;
21091;SDS011;10704;42.678;23.288;2023-10-31T00:34:30;10.00;;;4.25;;
21091;SDS011;10704;42.678;23.288;2023-10-31T00:36:56;8.98;;;4.32;;
21091;SDS011;10704;42.678;23.288;2023-10-31T00:39:22;10.13;;;4.57;;
21091;SDS011;10704;42.678;23.288;2023-10-31T00:41:48;14.45;;;4.47;;
21091;SDS011;10704;42.678;23.288;2023-10-31T00:44:13;11.80;;;4.68;;
21091;SDS011;10704;42.678;23.288;2023-10-31T00:46:40;10.65;;;4.65;;
21091;SDS011;10704;42.678;23.288;2023-10-31T00:49:06;12.20;;;5.15;;
21091;SDS011;10704;42.678;23.288;2023-10-31T00:51:32;12.68;;;4.25;;
21091;SDS011;10704;42.678;23.288;2023-10-31T00:53:58;8.63;;;4.13;;
21091;SDS011;10704;42.678;23.288;2023-10-31T01:00:11;7.43;;;4.00;;
21091;SDS011;10704;42.678;23.288;2023-10-31T01:02:38;9.20;;;4.72;;
21091;SDS011;10704;42.678;23.288;2023-10-31T01:05:04;12.43;;;5.13;;
21091;SDS011;10704;42.678;23.288;2023-10-31T01:07:29;10.48;;;4.40;;
21091;SDS011;10704;42.678;23.288;2023-10-31T01:09:55;10.95;;;5.13;;
21091;SDS011;10704;42.678;23.288;2023-10-31T01:12:21;9.25;;;4.40;;
21091;SDS011;10704;42.678;23.288;2023-10-31T01:14:48;11.45;;;4.63;;
21091;SDS011;10704;42.678;23.288;2023-10-31T01:17:14;11.45;;;4.03;;
21091;SDS011;10704;42.678;23.288;2023-10-31T01:23:27;14.38;;;4.85;;
21091;SDS011;10704;42.678;23.288;2023-10-31T01:25:53;11.98;;;4.53;;
21091;SDS011;10704;42.678;23.288;2023-10-31T01:28:19;12.23;;;4.38;;
21091;SDS011;10704;42.678;23.288;2023-10-31T01:30:45;9.63;;;4.18;;
21091;SDS011;10704;42.678;23.288;2023-10-31T01:33:11;12.50;;;4.07;;
21091;SDS011;10704;42.678;23.288;2023-10-31T01:35:37;11.65;;;4.38;;
21091;SDS011;10704;42.678;23.288;2023-10-31T01:38:03;12.25;;;4.57;;
21091;SDS011;10704;42.678;23.288;2023-10-31T01:40:30;9.85;;;4.15;;
21091;SDS011;10704;42.678;23.288;2023-10-31T01:42:55;8.85;;;4.18;;
21091;SDS011;10704;42.678;23.288;2023-10-31T01:45:21;10.65;;;4.00;;
21091;SDS011;10704;42.678;23.288;2023-10-31T01:47:47;11.15;;;4.97;;
21091;SDS011;10704;42.678;23.288;2023-10-31T01:50:15;9.27;;;4.10;;
21091;SDS011;10704;42.678;23.288;2023-10-31T01:52:41;12.45;;;4.82;;
21091;SDS011;10704;42.678;23.288;2023-10-31T01:55:07;8.43;;;4.60;;
21091;SDS011;10704;42.678;23.288;2023-10-31T01:57:35;12.60;;;5.00;;
21091;SDS011;10704;42.678;23.288;2023-10-31T02:02:57;11.23;;;4.05;;
21091;SDS011;10704;42.678;23.288;2023-10-31T02:09:11;14.95;;;4.38;;
21091;SDS011;10704;42.678;23.288;2023-10-31T02:11:37;11.27;;;4.65;;
21091;SDS011;10704;42.678;23.288;2023-10-31T02:14:05;10.73;;;4.53;;
21091;SDS011;10704;42.678;23.288;2023-10-31T02:16:31;11.43;;;4.53;;
21091;SDS011;10704;42.678;23.288;2023-10-31T02:18:57;12.05;;;5.07;;
21091;SDS011;10704;42.678;23.288;2023-10-31T02:21:23;13.10;;;4.97;;
21091;SDS011;10704;42.678;23.288;2023-10-31T02:24:01;13.88;;;5.28;;
21091;SDS011;10704;42.678;23.288;2023-10-31T02:26:29;9.18;;;4.45;;
21091;SDS011;10704;42.678;23.288;2023-10-31T02:28:55;8.50;;;4.47;;
21091;SDS011;10704;42.678;23.288;2023-10-31T02:35:09;12.63;;;5.22;;
21091;SDS011;10704;42.678;23.288;2023-10-31T02:37:35;10.50;;;4.88;;
21091;SDS011;10704;42.678;23.288;2023-10-31T02:40:01;10.88;;;5.63;;
21091;SDS011;10704;42.678;23.288;2023-10-31T02:42:28;11.57;;;5.40;;
21091;SDS011;10704;42.678;23.288;2023-10-31T02:44:54;8.25;;;4.70;;
21091;SDS011;10704;42.678;23.288;2023-10-31T02:51:08;11.98;;;5.43;;
21091;SDS011;10704;42.678;23.288;2023-10-31T02:53:35;12.15;;;5.43;;
21091;SDS011;10704;42.678;23.288;2023-10-31T02:56:01;7.35;;;4.10;;
21091;SDS011;10704;42.678;23.288;2023-10-31T02:58:27;8.32;;;4.72;;
21091;SDS011;10704;42.678;23.288;2023-10-31T03:00:53;13.93;;;4.90;;
21091;SDS011;10704;42.678;23.288;2023-10-31T03:03:19;9.80;;;4.63;;
21091;SDS011;10704;42.678;23.288;2023-10-31T03:05:45;8.43;;;4.45;;
21091;SDS011;10704;42.678;23.288;2023-10-31T03:08:11;9.60;;;4.65;;
21091;SDS011;10704;42.678;23.288;2023-10-31T03:10:41;10.98;;;4.72;;
21091;SDS011;10704;42.678;23.288;2023-10-31T03:16:54;15.10;;;5.00;;
21091;SDS011;10704;42.678;23.288;2023-10-31T03:23:07;8.32;;;4.15;;
21091;SDS011;10704;42.678;23.288;2023-10-31T03:25:34;9.32;;;4.50;;
21091;SDS011;10704;42.678;23.288;2023-10-31T03:27:59;9.55;;;4.65;;
21091;SDS011;10704;42.678;23.288;2023-10-31T03:30:25;9.23;;;4.22;;
21091;SDS011;10704;42.678;23.288;2023-10-31T03:32:51;9.30;;;4.78;;
21091;SDS011;10704;42.678;23.288;2023-10-31T03:35:17;12.70;;;5.05;;
21091;SDS011;10704;42.678;23.288;2023-10-31T03:37:55;13.63;;;5.22;;
21091;SDS011;10704;42.678;23.288;2023-10-31T03:40:21;14.77;;;5.90;;
21091;SDS011;10704;42.678;23.288;2023-10-31T03:42:48;12.82;;;5.68;;
21091;SDS011;10704;42.678;23.288;2023-10-31T03:45:13;10.68;;;6.38;;
21091;SDS011;10704;42.678;23.288;2023-10-31T03:47:39;13.80;;;5.82;;
21091;SDS011;10704;42.678;23.288;2023-10-31T03:50:05;15.88;;;7.35;;
21091;SDS011;10704;42.678;23.288;2023-10-31T03:52:32;12.80;;;7.40;;
21091;SDS011;10704;42.678;23.288;2023-10-31T03:58:11;15.68;;;7.97;;
21091;SDS011;10704;42.678;23.288;2023-10-31T04:03:54;21.38;;;9.95;;
21091;SDS011;10704;42.678;23.288;2023-10-31T04:06:32;20.88;;;8.95;;
21091;SDS011;10704;42.678;23.288;2023-10-31T04:08:58;16.38;;;8.52;;
21091;SDS011;10704;42.678;23.288;2023-10-31T04:11:24;19.60;;;10.45;;
21091;SDS011;10704;42.678;23.288;2023-10-31T04:13:50;17.98;;;8.25;;
21091;SDS011;10704;42.678;23.288;2023-10-31T04:16:16;15.95;;;8.65;;
21091;SDS011;10704;42.678;23.288;2023-10-31T04:22:28;19.65;;;8.07;;
21091;SDS011;10704;42.678;23.288;2023-10-31T04:31:28;19.13;;;8.55;;
21091;SDS011;10704;42.678;23.288;2023-10-31T04:44:03;14.73;;;7.38;;
21091;SDS011;10704;42.678;23.288;2023-10-31T04:46:37;17.73;;;8.52;;
21091;SDS011;10704;42.678;23.288;2023-10-31T04:49:03;18.17;;;9.73;;
21091;SDS011;10704;42.678;23.288;2023-10-31T04:51:36;14.57;;;8.73;;
21091;SDS011;10704;42.678;23.288;2023-10-31T04:54:03;19.08;;;9.75;;
21091;SDS011;10704;42.678;23.288;2023-10-31T04:56:29;17.75;;;9.20;;
21091;SDS011;10704;42.678;23.288;2023-10-31T04:58:55;19.58;;;10.43;;
21091;SDS011;10704;42.678;23.288;2023-10-31T05:01:22;29.30;;;11.50;;
21091;SDS011;10704;42.678;23.288;2023-10-31T05:03:48;20.05;;;10.02;;
21091;SDS011;10704;42.678;23.288;2023-10-31T05:06:18;20.73;;;10.75;;
21091;SDS011;10704;42.678;23.288;2023-10-31T05:15:41;22.73;;;10.88;;
21091;SDS011;10704;42.678;23.288;2023-10-31T05:18:07;18.33;;;10.45;;
21091;SDS011;10704;42.678;23.288;2023-10-31T05:20:33;26.42;;;14.85;;
21091;SDS011;10704;42.678;23.288;2023-10-31T05:22:59;23.13;;;12.27;;
21091;SDS011;10704;42.678;23.288;2023-10-31T05:25:25;34.25;;;19.20;;
21091;SDS011;10704;42.678;23.288;2023-10-31T05:27:51;34.10;;;17.85;;
21091;SDS011;10704;42.678;23.288;2023-10-31T05:30:17;20.90;;;11.60;;
21091;SDS011;10704;42.678;23.288;2023-10-31T05:32:43;28.13;;;11.75;;
21091;SDS011;10704;42.678;23.288;2023-10-31T05:35:10;24.42;;;12.38;;
21091;SDS011;10704;42.678;23.288;2023-10-31T05:37:36;21.70;;;12.02;;
21091;SDS011;10704;42.678;23.288;2023-10-31T05:40:02;24.67;;;12.50;;
21091;SDS011;10704;42.678;23.288;2023-10-31T05:42:28;22.83;;;12.55;;
21091;SDS011;10704;42.678;23.288;2023-10-31T05:44:55;21.73;;;12.90;;
21091;SDS011;10704;42.678;23.288;2023-10-31T05:53:15;29.60;;;14.15;;
21091;SDS011;10704;42.678;23.288;2023-10-31T05:55:41;29.58;;;16.42;;
21091;SDS011;10704;42.678;23.288;2023-10-31T05:58:07;39.00;;;18.48;;
21091;SDS011;10704;42.678;23.288;2023-10-31T06:07:46;37.45;;;17.55;;
21091;SDS011;10704;42.678;23.288;2023-10-31T06:10:12;38.35;;;16.10;;
21091;SDS011;10704;42.678;23.288;2023-10-31T06:12:38;27.92;;;14.40;;
21091;SDS011;10704;42.678;23.288;2023-10-31T06:15:04;31.50;;;13.57;;
21091;SDS011;10704;42.678;23.288;2023-10-31T06:17:30;28.08;;;13.13;;
21091;SDS011;10704;42.678;23.288;2023-10-31T06:19:58;28.35;;;13.60;;
21091;SDS011;10704;42.678;23.288;2023-10-31T06:22:24;19.25;;;12.45;;
21091;SDS011;10704;42.678;23.288;2023-10-31T06:24:51;22.40;;;11.73;;
21091;SDS011;10704;42.678;23.288;2023-10-31T06:27:17;20.67;;;10.50;;
21091;SDS011;10704;42.678;23.288;2023-10-31T06:29:43;19.52;;;10.27;;
21091;SDS011;10704;42.678;23.288;2023-10-31T06:32:09;25.27;;;11.20;;
21091;SDS011;10704;42.678;23.288;2023-10-31T06:34:34;23.80;;;11.35;;
21091;SDS011;10704;42.678;23.288;2023-10-31T06:39:53;26.42;;;10.00;;
21091;SDS011;10704;42.678;23.288;2023-10-31T06:46:08;19.75;;;9.57;;
21091;SDS011;10704;42.678;23.288;2023-10-31T06:48:34;18.98;;;9.77;;
21091;SDS011;10704;42.678;23.288;2023-10-31T06:51:00;21.05;;;10.25;;
21091;SDS011;10704;42.678;23.288;2023-10-31T06:57:16;21.15;;;9.70;;
21091;SDS011;10704;42.678;23.288;2023-10-31T06:59:41;20.63;;;10.18;;
21091;SDS011;10704;42.678;23.288;2023-10-31T07:02:07;21.63;;;10.18;;
21091;SDS011;10704;42.678;23.288;2023-10-31T07:08:21;20.23;;;9.45;;
21091;SDS011;10704;42.678;23.288;2023-10-31T07:10:47;16.33;;;9.70;;
21091;SDS011;10704;42.678;23.288;2023-10-31T07:13:13;19.55;;;9.65;;
21091;SDS011;10704;42.678;23.288;2023-10-31T07:23:14;14.75;;;8.82;;
21091;SDS011;10704;42.678;23.288;2023-10-31T07:25:40;16.40;;;10.05;;
21091;SDS011;10704;42.678;23.288;2023-10-31T07:28:06;23.10;;;9.10;;
21091;SDS011;10704;42.678;23.288;2023-10-31T07:30:32;18.48;;;8.73;;
21091;SDS011;10704;42.678;23.288;2023-10-31T07:32:58;17.98;;;9.07;;
21091;SDS011;10704;42.678;23.288;2023-10-31T07:35:24;23.05;;;9.23;;
21091;SDS011;10704;42.678;23.288;2023-10-31T07:37:50;18.02;;;8.80;;
21091;SDS011;10704;42.678;23.288;2023-10-31T07:40:15;19.17;;;9.20;;
21091;SDS011;10704;42.678;23.288;2023-10-31T07:46:29;18.83;;;9.10;;
21091;SDS011;10704;42.678;23.288;2023-10-31T07:51:56;14.82;;;8.75;;
21091;SDS011;10704;42.678;23.288;2023-10-31T07:58:10;14.80;;;7.97;;
21091;SDS011;10704;42.678;23.288;2023-10-31T08:00:36;16.67;;;8.38;;
21091;SDS011;10704;42.678;23.288;2023-10-31T08:03:04;17.42;;;8.98;;
21091;SDS011;10704;42.678;23.288;2023-10-31T08:05:30;19.73;;;8.68;;
21091;SDS011;10704;42.678;23.288;2023-10-31T08:07:59;23.05;;;9.18;;
21091;SDS011;10704;42.678;23.288;2023-10-31T08:10:25;16.40;;;9.80;;
21091;SDS011;10704;42.678;23.288;2023-10-31T08:12:51;16.40;;;8.43;;
21091;SDS011;10704;42.678;23.288;2023-10-31T08:15:17;12.52;;;8.18;;
21091;SDS011;10704;42.678;23.288;2023-10-31T08:17:43;14.05;;;8.50;;
21091;SDS011;10704;42.678;23.288;2023-10-31T08:20:09;14.57;;;8.18;;
21091;SDS011;10704;42.678;23.288;2023-10-31T08:22:36;15.05;;;8.20;;
21091;SDS011;10704;42.678;23.288;2023-10-31T08:25:02;17.52;;;7.43;;
21091;SDS011;10704;42.678;23.288;2023-10-31T08:27:29;14.48;;;7.93;;
21091;SDS011;10704;42.678;23.288;2023-10-31T08:40:34;11.82;;;6.90;;
21091;SDS011;10704;42.678;23.288;2023-10-31T08:42:59;15.15;;;7.45;;
21091;SDS011;10704;42.678;23.288;2023-10-31T08:45:26;14.60;;;7.25;;
21091;SDS011;10704;42.678;23.288;2023-10-31T08:47:52;18.08;;;7.35;;
21091;SDS011;10704;42.678;23.288;2023-10-31T08:50:18;10.60;;;6.47;;
21091;SDS011;10704;42.678;23.288;2023-10-31T08:52:45;10.43;;;6.25;;
21091;SDS011;10704;42.678;23.288;2023-10-31T08:55:10;13.20;;;6.68;;
21091;SDS011;10704;42.678;23.288;2023-10-31T08:57:36;11.70;;;6.25;;
21091;SDS011;10704;42.678;23.288;2023-10-31T09:02:54;14.40;;;5.85;;
21091;SDS011;10704;42.678;23.288;2023-10-31T09:05:32;14.65;;;6.32;;
21091;SDS011;10704;42.678;23.288;2023-10-31T09:07:58;13.68;;;5.72;;
21091;SDS011;10704;42.678;23.288;2023-10-31T09:10:24;9.23;;;6.78;;
21091;SDS011;10704;42.678;23.288;2023-10-31T09:12:50;13.73;;;6.40;;
21091;SDS011;10704;42.678;23.288;2023-10-31T09:15:15;11.30;;;5.20;;
21091;SDS011;10704;42.678;23.288;2023-10-31T09:17:41;15.07;;;5.25;;
21091;SDS011;10704;42.678;23.288;2023-10-31T09:20:07;11.52;;;4.82;;
21091;SDS011;10704;42.678;23.288;2023-10-31T09:22:33;9.98;;;5.40;;
21091;SDS011;10704;42.678;23.288;2023-10-31T09:28:47;11.57;;;5.10;;
21091;SDS011;10704;42.678;23.288;2023-10-31T09:34:25;9.48;;;4.80;;
21091;SDS011;10704;42.678;23.288;2023-10-31T09:36:51;9.40;;;3.88;;
21091;SDS011;10704;42.678;23.288;2023-10-31T09:39:16;10.55;;;4.68;;
21091;SDS011;10704;42.678;23.288;2023-10-31T09:41:42;15.70;;;8.05;;
21091;SDS011;10704;42.678;23.288;2023-10-31T09:56:11;11.52;;;4.18;;
21091;SDS011;10704;42.678;23.288;2023-10-31T09:58:38;9.27;;;4.05;;
21091;SDS011;10704;42.678;23.288;2023-10-31T10:01:04;11.43;;;4.60;;
21091;SDS011;10704;42.678;23.288;2023-10-31T10:03:30;9.80;;;4.75;;
21091;SDS011;10704;42.678;23.288;2023-10-31T10:05:57;9.10;;;4.10;;
21091;SDS011;10704;42.678;23.288;2023-10-31T10:08:23;10.38;;;4.35;;
21091;SDS011;10704;42.678;23.288;2023-10-31T10:10:49;8.45;;;4.05;;
21091;SDS011;10704;42.678;23.288;2023-10-31T10:13:22;8.55;;;4.05;;
21091;SDS011;10704;42.678;23.288;2023-10-31T10:22:43;10.07;;;4.95;;
21091;SDS011;10704;42.678;23.288;2023-10-31T10:25:16;11.70;;;5.13;;
21091;SDS011;10704;42.678;23.288;2023-10-31T10:28:02;12.63;;;5.78;;
21091;SDS011;10704;42.678;23.288;2023-10-31T10:30:31;9.65;;;4.88;;
21091;SDS011;10704;42.678;23.288;2023-10-31T10:33:03;8.45;;;5.20;;
21091;SDS011;10704;42.678;23.288;2023-10-31T10:35:28;11.55;;;5.00;;
21091;SDS011;10704;42.678;23.288;2023-10-31T10:37:54;12.73;;;4.93;;
21091;SDS011;10704;42.678;23.288;2023-10-31T10:40:21;13.48;;;5.20;;
21091;SDS011;10704;42.678;23.288;2023-10-31T10:42:48;11.75;;;3.88;;
21091;SDS011;10704;42.678;23.288;2023-10-31T10:47:58;11.18;;;5.28;;
21091;SDS011;10704;42.678;23.288;2023-10-31T10:50:38;10.13;;;4.65;;
21091;SDS011;10704;42.678;23.288;2023-10-31T11:00:09;8.98;;;4.55;;
21091;SDS011;10704;42.678;23.288;2023-10-31T11:02:41;13.73;;;4.80;;
21091;SDS011;10704;42.678;23.288;2023-10-31T11:05:09;9.02;;;4.07;;
21091;SDS011;10704;42.678;23.288;2023-10-31T11:15:09;8.55;;;3.38;;
21091;SDS011;10704;42.678;23.288;2023-10-31T11:17:37;11.15;;;3.50;;
21091;SDS011;10704;42.678;23.288;2023-10-31T11:20:06;9.98;;;3.55;;
21091;SDS011;10704;42.678;23.288;2023-10-31T11:22:41;9.45;;;3.17;;
21091;SDS011;10704;42.678;23.288;2023-10-31T11:25:10;12.27;;;3.95;;
21091;SDS011;10704;42.678;23.288;2023-10-31T11:31:25;9.55;;;3.13;;
21091;SDS011;10704;42.678;23.288;2023-10-31T11:37:40;11.63;;;3.63;;
21091;SDS011;10704;42.678;23.288;2023-10-31T11:40:15;8.52;;;2.72;;
21091;SDS011;10704;42.678;23.288;2023-10-31T11:42:44;7.40;;;3.10;;
21091;SDS011;10704;42.678;23.288;2023-10-31T11:45:24;6.63;;;3.05;;
21091;SDS011;10704;42.678;23.288;2023-10-31T11:47:51;10.90;;;2.60;;
21091;SDS011;10704;42.678;23.288;2023-10-31T11:50:18;6.10;;;2.75;;
21091;SDS011;10704;42.678;23.288;2023-10-31T11:56:02;8.85;;;2.45;;
21091;SDS011;10704;42.678;23.288;2023-10-31T12:01:49;6.68;;;2.22;;
21091;SDS011;10704;42.678;23.288;2023-10-31T12:15:50;6.88;;;2.95;;
21091;SDS011;10704;42.678;23.288;2023-10-31T12:18:17;7.88;;;2.72;;
21091;SDS011;10704;42.678;23.288;2023-10-31T12:20:50;5.25;;;2.67;;
21091;SDS011;10704;42.678;23.288;2023-10-31T12:23:17;9.32;;;4.30;;
21091;SDS011;10704;42.678;23.288;2023-10-31T12:25:49;21.48;;;8.48;;
21091;SDS011;10704;42.678;23.288;2023-10-31T12:28:16;7.63;;;3.80;;
21091;SDS011;10704;42.678;23.288;2023-10-31T12:34:33;6.78;;;2.88;;
21091;SDS011;10704;42.678;23.288;2023-10-31T12:36:59;11.25;;;2.97;;
21091;SDS011;10704;42.678;23.288;2023-10-31T12:42:15;7.20;;;2.90;;
21091;SDS011;10704;42.678;23.288;2023-10-31T12:44:42;8.25;;;2.95;;
21091;SDS011;10704;42.678;23.288;2023-10-31T12:47:08;5.75;;;2.72;;
21091;SDS011;10704;42.678;23.288;2023-10-31T12:49:34;11.38;;;2.92;;
21091;SDS011;10704;42.678;23.288;2023-10-31T12:52:00;10.25;;;3.17;;
21091;SDS011;10704;42.678;23.288;2023-10-31T12:58:22;8.70;;;3.17;;
21091;SDS011;10704;42.678;23.288;2023-10-31T13:00:48;10.13;;;3.97;;
21091;SDS011;10704;42.678;23.288;2023-10-31T13:03:16;10.13;;;3.75;;
21091;SDS011;10704;42.678;23.288;2023-10-31T13:05:42;7.55;;;2.90;;
21091;SDS011;10704;42.678;23.288;2023-10-31T13:08:14;14.48;;;3.40;;
21091;SDS011;10704;42.678;23.288;2023-10-31T13:10:41;11.75;;;4.32;;
21091;SDS011;10704;42.678;23.288;2023-10-31T13:13:08;9.98;;;3.30;;
21091;SDS011;10704;42.678;23.288;2023-10-31T13:15:34;13.75;;;4.38;;
21091;SDS011;10704;42.678;23.288;2023-10-31T13:18:02;13.80;;;7.20;;
21091;SDS011;10704;42.678;23.288;2023-10-31T13:20:28;8.38;;;3.85;;
21091;SDS011;10704;42.678;23.288;2023-10-31T13:22:54;11.85;;;4.00;;
21091;SDS011;10704;42.678;23.288;2023-10-31T13:32:23;11.65;;;3.00;;
21091;SDS011;10704;42.678;23.288;2023-10-31T13:34:49;9.73;;;3.60;;
21091;SDS011;10704;42.678;23.288;2023-10-31T13:37:15;9.85;;;3.67;;
21091;SDS011;10704;42.678;23.288;2023-10-31T13:39:41;11.10;;;3.58;;
21091;SDS011;10704;42.678;23.288;2023-10-31T13:42:07;10.55;;;3.72;;
21091;SDS011;10704;42.678;23.288;2023-10-31T13:44:33;13.75;;;6.00;;
21091;SDS011;10704;42.678;23.288;2023-10-31T13:46:59;11.32;;;4.50;;
21091;SDS011;10704;42.678;23.288;2023-10-31T13:49:26;10.38;;;4.05;;
21091;SDS011;10704;42.678;23.288;2023-10-31T13:51:52;15.23;;;5.15;;
21091;SDS011;10704;42.678;23.288;2023-10-31T13:54:18;12.40;;;4.80;;
21091;SDS011;10704;42.678;23.288;2023-10-31T13:56:45;9.02;;;4.18;;
21091;SDS011;10704;42.678;23.288;2023-10-31T13:59:11;10.40;;;3.90;;
21091;SDS011;10704;42.678;23.288;2023-10-31T14:05:25;8.98;;;3.75;;
21091;SDS011;10704;42.678;23.288;2023-10-31T14:07:51;10.75;;;3.85;;
21091;SDS011;10704;42.678;23.288;2023-10-31T14:10:17;11.68;;;4.40;;
21091;SDS011;10704;42.678;23.288;2023-10-31T14:12:45;14.95;;;5.00;;
21091;SDS011;10704;42.678;23.288;2023-10-31T14:15:12;10.73;;;4.70;;
21091;SDS011;10704;42.678;23.288;2023-10-31T14:17:38;10.95;;;4.03;;
21091;SDS011;10704;42.678;23.288;2023-10-31T14:20:04;13.75;;;4.32;;
21091;SDS011;10704;42.678;23.288;2023-10-31T14:22:30;10.50;;;4.25;;
21091;SDS011;10704;42.678;23.288;2023-10-31T14:28:43;13.27;;;4.10;;
21091;SDS011;10704;42.678;23.288;2023-10-31T14:31:10;17.08;;;6.60;;
21091;SDS011;10704;42.678;23.288;2023-10-31T14:33:36;16.00;;;7.45;;
21091;SDS011;10704;42.678;23.288;2023-10-31T14:36:02;15.40;;;6.22;;
21091;SDS011;10704;42.678;23.288;2023-10-31T14:38:28;18.15;;;7.82;;
21091;SDS011;10704;42.678;23.288;2023-10-31T14:40:54;17.52;;;8.30;;
21091;SDS011;10704;42.678;23.288;2023-10-31T14:43:20;19.70;;;7.40;;
21091;SDS011;10704;42.678;23.288;2023-10-31T14:45:46;24.55;;;10.00;;
21091;SDS011;10704;42.678;23.288;2023-10-31T14:48:12;23.50;;;7.28;;
21091;SDS011;10704;42.678;23.288;2023-10-31T14:57:28;15.27;;;7.60;;
21091;SDS011;10704;42.678;23.288;2023-10-31T14:59:54;17.33;;;6.55;;
21091;SDS011;10704;42.678;23.288;2023-10-31T15:02:22;11.10;;;5.15;;
21091;SDS011;10704;42.678;23.288;2023-10-31T15:08:36;15.48;;;6.72;;
21091;SDS011;10704;42.678;23.288;2023-10-31T15:11:02;12.57;;;6.55;;
21091;SDS011;10704;42.678;23.288;2023-10-31T15:13:28;18.17;;;6.57;;
21091;SDS011;10704;42.678;23.288;2023-10-31T15:15:54;20.80;;;6.90;;
21091;SDS011;10704;42.678;23.288;2023-10-31T15:21:41;23.48;;;6.97;;
21091;SDS011;10704;42.678;23.288;2023-10-31T15:24:16;15.80;;;5.97;;
21091;SDS011;10704;42.678;23.288;2023-10-31T15:26:41;15.20;;;6.75;;
21091;SDS011;10704;42.678;23.288;2023-10-31T15:39:31;19.23;;;7.13;;
21091;SDS011;10704;42.678;23.288;2023-10-31T15:41:57;22.80;;;7.82;;
21091;SDS011;10704;42.678;23.288;2023-10-31T15:44:23;18.17;;;7.63;;
21091;SDS011;10704;42.678;23.288;2023-10-31T15:46:49;13.75;;;7.38;;
21091;SDS011;10704;42.678;23.288;2023-10-31T15:49:16;16.83;;;5.53;;
21091;SDS011;10704;42.678;23.288;2023-10-31T15:51:42;16.67;;;6.88;;
21091;SDS011;10704;42.678;23.288;2023-10-31T15:54:08;23.35;;;8.23;;
21091;SDS011;10704;42.678;23.288;2023-10-31T15:56:34;22.83;;;9.02;;
21091;SDS011;10704;42.678;23.288;2023-10-31T15:58:59;19.95;;;9.63;;
21091;SDS011;10704;42.678;23.288;2023-10-31T16:01:27;22.38;;;8.63;;
21091;SDS011;10704;42.678;23.288;2023-10-31T16:03:52;22.00;;;9.50;;
21091;SDS011;10704;42.678;23.288;2023-10-31T16:10:06;18.27;;;8.10;;
21091;SDS011;10704;42.678;23.288;2023-10-31T16:22:36;16.50;;;8.32;;
21091;SDS011;10704;42.678;23.288;2023-10-31T16:25:02;18.65;;;8.05;;
21091;SDS011;10704;42.678;23.288;2023-10-31T16:31:16;18.90;;;8.68;;
21091;SDS011;10704;42.678;23.288;2023-10-31T16:33:45;26.60;;;8.77;;
21091;SDS011;10704;42.678;23.288;2023-10-31T16:36:11;20.85;;;7.60;;
21091;SDS011;10704;42.678;23.288;2023-10-31T16:38:36;19.23;;;7.78;;
21091;SDS011;10704;42.678;23.288;2023-10-31T16:41:02;21.48;;;7.53;;
21091;SDS011;10704;42.678;23.288;2023-10-31T16:43:29;18.50;;;7.43;;
21091;SDS011;10704;42.678;23.288;2023-10-31T16:45:55;19.23;;;8.35;;
21091;SDS011;10704;42.678;23.288;2023-10-31T16:48:21;22.88;;;8.60;;
21091;SDS011;10704;42.678;23.288;2023-10-31T16:58:23;16.92;;;8.23;;
21091;SDS011;10704;42.678;23.288;2023-10-31T17:00:49;19.70;;;10.20;;
21091;SDS011;10704;42.678;23.288;2023-10-31T17:03:15;20.85;;;9.55;;
21091;SDS011;10704;42.678;23.288;2023-10-31T17:05:41;32.22;;;10.88;;
21091;SDS011;10704;42.678;23.288;2023-10-31T17:08:06;34.67;;;13.38;;
21091;SDS011;10704;42.678;23.288;2023-10-31T17:16:28;35.38;;;12.15;;
21091;SDS011;10704;42.678;23.288;2023-10-31T17:18:54;31.05;;;13.70;;
21091;SDS011;10704;42.678;23.288;2023-10-31T17:21:19;23.80;;;9.45;;
21091;SDS011;10704;42.678;23.288;2023-10-31T17:23:45;20.00;;;7.47;;
21091;SDS011;10704;42.678;23.288;2023-10-31T17:26:11;22.42;;;8.98;;
21091;SDS011;10704;42.678;23.288;2023-10-31T17:28:37;25.80;;;9.15;;
21091;SDS011;10704;42.678;23.288;2023-10-31T17:31:04;20.98;;;8.55;;
21091;SDS011;10704;42.678;23.288;2023-10-31T17:33:32;27.83;;;9.63;;
21091;SDS011;10704;42.678;23.288;2023-10-31T17:35:58;29.25;;;12.82;;
21091;SDS011;10704;42.678;23.288;2023-10-31T17:38:24;35.55;;;15.13;;
21091;SDS011;10704;42.678;23.288;2023-10-31T17:47:25;30.00;;;12.30;;
21091;SDS011;10704;42.678;23.288;2023-10-31T17:49:51;24.70;;;12.95;;
21091;SDS011;10704;42.678;23.288;2023-10-31T17:52:16;27.50;;;12.05;;
21091;SDS011;10704;42.678;23.288;2023-10-31T17:54:42;31.95;;;12.68;;
21091;SDS011;10704;42.678;23.288;2023-10-31T17:57:09;32.33;;;13.70;;
21091;SDS011;10704;42.678;23.288;2023-10-31T17:59:36;25.55;;;12.90;;
21091;SDS011;10704;42.678;23.288;2023-10-31T18:05:24;22.77;;;11.82;;
21091;SDS011;10704;42.678;23.288;2023-10-31T18:07:50;22.58;;;10.98;;
21091;SDS011;10704;42.678;23.288;2023-10-31T18:14:03;18.90;;;10.02;;
21091;SDS011;10704;42.678;23.288;2023-10-31T18:16:29;24.77;;;10.02;;
21091;SDS011;10704;42.678;23.288;2023-10-31T18:18:55;24.48;;;9.82;;
21091;SDS011;10704;42.678;23.288;2023-10-31T18:27:58;29.98;;;11.88;;
21091;SDS011;10704;42.678;23.288;2023-10-31T18:30:24;22.90;;;9.23;;
21091;SDS011;10704;42.678;23.288;2023-10-31T18:32:50;32.35;;;11.48;;
21091;SDS011;10704;42.678;23.288;2023-10-31T18:39:02;21.08;;;9.60;;
21091;SDS011;10704;42.678;23.288;2023-10-31T18:41:28;26.35;;;11.55;;
21091;SDS011;10704;42.678;23.288;2023-10-31T18:43:54;26.27;;;11.70;;
21091;SDS011;10704;42.678;23.288;2023-10-31T18:46:20;25.63;;;10.52;;
21091;SDS011;10704;42.678;23.288;2023-10-31T18:48:46;36.40;;;14.52;;
21091;SDS011;10704;42.678;23.288;2023-10-31T18:51:12;33.83;;;13.68;;
21091;SDS011;10704;42.678;23.288;2023-10-31T19:01:13;22.35;;;11.43;;
21091;SDS011;10704;42.678;23.288;2023-10-31T19:10:43;23.65;;;10.43;;
21091;SDS011;10704;42.678;23.288;2023-10-31T19:13:14;39.85;;;13.13;;
21091;SDS011;10704;42.678;23.288;2023-10-31T19:15:40;32.63;;;12.40;;
21091;SDS011;10704;42.678;23.288;2023-10-31T19:18:06;26.52;;;10.63;;
21091;SDS011;10704;42.678;23.288;2023-10-31T19:23:59;22.92;;;9.80;;
21091;SDS011;10704;42.678;23.288;2023-10-31T19:29:46;17.80;;;9.45;;
21091;SDS011;10704;42.678;23.288;2023-10-31T19:32:12;19.85;;;9.18;;
21091;SDS011;10704;42.678;23.288;2023-10-31T19:34:37;21.35;;;9.57;;
21091;SDS011;10704;42.678;23.288;2023-10-31T19:37:03;26.23;;;10.25;;
21091;SDS011;10704;42.678;23.288;2023-10-31T19:42:40;19.15;;;8.75;;
21091;SDS011;10704;42.678;23.288;2023-10-31T19:45:06;23.75;;;9.25;;
21091;SDS011;10704;42.678;23.288;2023-10-31T19:47:34;21.65;;;9.30;;